Time;durP1;ratioP1;P1;durP2;ratioP2;P2;SDS_P1;SDS_P2;PMS_P1;PMS_P2;Temp;Humidity;BMP_temperature;BMP_pressure;BME280_temperature;BME280_humidity;BME280_pressure;Samples;Min_cycle;Max_cycle;Signal;HPM_P1;HPM_P2
2021/04/10 00:01:38;;;;;;;0.77;0.70;;;7.40;72.20;;;;;;5094155;28;20394;-79
2021/04/10 00:04:04;;;;;;;1.17;0.85;;;7.40;72.40;;;;;;5075796;28;20040;-80
2021/04/10 00:06:31;;;;;;;1.83;0.75;;;7.50;72.50;;;;;;5075580;28;20489;-79
2021/04/10 00:08:57;;;;;;;1.48;0.80;;;7.30;72.50;;;;;;5093645;28;20039;-79
2021/04/10 00:11:23;;;;;;;1.02;0.55;;;7.30;72.60;;;;;;5093728;28;20051;-79
2021/04/10 00:13:49;;;;;;;1.25;0.50;;;7.30;72.60;;;;;;5093408;28;20028;-79
2021/04/10 00:16:15;;;;;;;0.90;0.60;;;7.20;72.70;;;;;;5093155;28;20486;-79
2021/04/10 00:18:40;;;;;;;1.27;0.60;;;7.30;72.80;;;;;;5074920;28;20048;-79
2021/04/10 00:21:06;;;;;;;0.88;0.60;;;7.20;72.70;;;;;;5093599;28;20044;-79
2021/04/10 00:23:32;;;;;;;0.55;0.50;;;7.20;72.70;;;;;;5093272;28;20118;-79
2021/04/10 00:25:58;;;;;;;1.17;0.40;;;7.30;72.90;;;;;;5092195;28;20044;-79
2021/04/10 00:28:23;;;;;;;1.48;0.60;;;7.20;72.90;;;;;;5075093;28;20413;-80
2021/04/10 00:30:49;;;;;;;1.05;0.50;;;7.20;72.90;;;;;;5075256;28;20047;-79
2021/04/10 00:33:15;;;;;;;0.85;0.50;;;7.20;72.90;;;;;;5075224;28;20048;-79
2021/04/10 00:35:40;;;;;;;1.10;0.55;;;7.00;72.90;;;;;;5093723;28;20036;-80
2021/04/10 00:38:06;;;;;;;0.40;0.40;;;7.10;73.10;;;;;;5092720;28;20047;-80
2021/04/10 00:40:32;;;;;;;0.70;0.50;;;7.10;73.20;;;;;;5074536;28;20044;-79
2021/04/10 00:42:57;;;;;;;0.90;0.40;;;7.10;73.20;;;;;;5093115;28;20440;-79
2021/04/10 00:45:23;;;;;;;0.50;0.30;;;7.10;73.20;;;;;;5093296;28;20040;-80
2021/04/10 00:47:49;;;;;;;1.42;0.60;;;7.10;73.30;;;;;;5092959;28;20498;-80
2021/04/10 00:50:15;;;;;;;2.80;0.73;;;7.00;73.30;;;;;;5074283;28;20040;-80
2021/04/10 00:52:42;;;;;;;2.70;0.63;;;7.00;73.40;;;;;;5057785;28;20040;-80
2021/04/10 00:55:10;;;;;;;0.80;0.47;;;7.00;73.40;;;;;;5074370;28;20429;-80
2021/04/10 00:57:36;;;;;;;0.77;0.30;;;7.00;73.40;;;;;;5093066;28;20047;-79
2021/04/10 01:00:04;;;;;;;1.75;0.50;;;7.00;73.40;;;;;;5092618;28;20502;-80
2021/04/10 01:02:30;;;;;;;1.15;0.43;;;7.00;73.50;;;;;;5092576;28;20049;-80
2021/04/10 01:04:56;;;;;;;1.38;0.50;;;7.00;73.50;;;;;;5092385;28;20486;-79
2021/04/10 01:07:22;;;;;;;1.30;0.50;;;7.00;73.60;;;;;;5092709;28;20093;-80
2021/04/10 01:09:49;;;;;;;0.40;0.38;;;6.90;73.60;;;;;;5074522;28;20040;-80
2021/04/10 01:12:33;;;;;;;0.65;0.40;;;6.90;73.70;;;;;;5057669;28;20558;-79
2021/04/10 01:15:17;;;;;;;0.30;0.30;;;7.00;73.90;;;;;;5092212;28;20044;-80
2021/04/10 01:17:55;;;;;;;0.50;0.20;;;6.80;73.80;;;;;;5091577;28;20574;-79
2021/04/10 01:20:52;;;;;;;1.08;0.30;;;6.80;73.80;;;;;;5092792;28;20402;-80
2021/04/10 01:23:54;;;;;;;2.42;0.30;;;6.90;74.00;;;;;;5092154;28;20402;-80
2021/04/10 01:26:43;;;;;;;0.73;0.47;;;6.80;73.90;;;;;;5073717;28;20036;-80
2021/04/10 01:29:14;;;;;;;0.40;0.40;;;6.80;73.90;;;;;;5090825;28;20039;-80
2021/04/10 01:31:44;;;;;;;0.90;0.65;;;6.80;73.90;;;;;;5074825;28;20482;-80
2021/04/10 01:34:16;;;;;;;0.40;0.30;;;6.70;73.90;;;;;;5091147;28;20044;-80
2021/04/10 01:36:46;;;;;;;0.95;0.40;;;6.70;74.00;;;;;;5074710;28;20407;-80
2021/04/10 01:39:17;;;;;;;0.30;0.30;;;6.70;74.00;;;;;;5056727;28;20432;-80
2021/04/10 01:41:47;;;;;;;0.43;0.25;;;6.60;74.10;;;;;;5057090;28;20054;-79
2021/04/10 01:44:15;;;;;;;0.40;0.38;;;6.60;74.10;;;;;;5073872;28;20050;-80
2021/04/10 01:46:42;;;;;;;0.60;0.40;;;6.60;74.10;;;;;;5092592;28;20045;-80
2021/04/10 01:49:09;;;;;;;1.65;0.30;;;6.70;74.20;;;;;;5074056;28;20401;-80
2021/04/10 01:51:35;;;;;;;0.80;0.50;;;6.70;74.20;;;;;;5092525;28;20084;-80
2021/04/10 01:54:03;;;;;;;0.70;0.40;;;6.70;74.20;;;;;;5092158;28;20114;-80
2021/04/10 01:56:32;;;;;;;0.60;0.40;;;6.70;74.30;;;;;;5091755;28;20098;-79
2021/04/10 01:59:00;;;;;;;0.30;0.30;;;6.70;74.40;;;;;;5073513;28;20561;-80
2021/04/10 02:01:27;;;;;;;0.45;0.35;;;6.60;74.40;;;;;;5092470;28;20112;-80
2021/04/10 02:03:53;;;;;;;0.40;0.40;;;6.60;74.40;;;;;;5092108;28;20123;-80
2021/04/10 02:06:19;;;;;;;1.33;0.28;;;6.60;74.50;;;;;;5092030;28;20056;-80
2021/04/10 02:08:45;;;;;;;1.13;0.40;;;6.50;74.50;;;;;;5092063;28;20089;-79
2021/04/10 02:11:14;;;;;;;0.32;0.30;;;6.60;74.60;;;;;;5073493;28;20559;-80
2021/04/10 02:13:41;;;;;;;0.65;0.47;;;6.60;74.60;;;;;;5071604;28;20504;-79
2021/04/10 02:16:07;;;;;;;2.60;0.60;;;6.50;74.60;;;;;;5091714;28;20040;-80
2021/04/10 02:18:35;;;;;;;1.80;0.50;;;6.50;74.70;;;;;;5092084;28;20516;-80
2021/04/10 02:21:06;;;;;;;0.68;0.30;;;6.50;74.70;;;;;;5092438;28;20047;-80
2021/04/10 02:23:33;;;;;;;0.20;0.20;;;6.50;74.80;;;;;;5091586;28;20044;-80
2021/04/10 02:26:00;;;;;;;0.38;0.30;;;6.50;74.90;;;;;;5056715;28;20046;-80
2021/04/10 02:28:26;;;;;;;0.75;0.30;;;6.50;74.90;;;;;;5056847;28;20036;-80
2021/04/10 02:30:52;;;;;;;0.98;0.30;;;6.50;74.90;;;;;;5091934;28;20540;-80
2021/04/10 02:33:27;;;;;;;0.88;0.50;;;6.50;74.90;;;;;;5091959;28;20055;-80
2021/04/10 02:35:57;;;;;;;0.75;0.20;;;6.60;75.00;;;;;;5091702;28;20044;-80
2021/04/10 02:38:25;;;;;;;0.93;0.47;;;6.50;75.00;;;;;;5073346;28;20052;-79
2021/04/10 02:40:58;;;;;;;0.77;0.40;;;6.50;75.00;;;;;;5091923;28;20040;-80
2021/04/10 02:43:28;;;;;;;0.43;0.38;;;6.40;75.10;;;;;;5091406;28;20037;-80
2021/04/10 02:45:59;;;;;;;0.52;0.30;;;6.50;75.10;;;;;;5091532;28;20042;-80
2021/04/10 02:48:31;;;;;;;1.42;0.52;;;6.40;75.20;;;;;;5091114;28;20097;-80
2021/04/10 02:50:59;;;;;;;0.40;0.40;;;6.40;75.20;;;;;;5093839;28;20063;-80
2021/04/10 02:53:26;;;;;;;0.32;0.25;;;6.30;75.20;;;;;;5076333;28;20067;-80
2021/04/10 02:55:56;;;;;;;1.17;0.60;;;6.30;75.30;;;;;;5076999;28;20047;-80
2021/04/10 02:58:24;;;;;;;1.80;0.43;;;6.40;75.40;;;;;;5094505;28;20043;-81
2021/04/10 03:00:52;;;;;;;1.15;0.52;;;6.30;75.30;;;;;;5094663;28;20089;-80
2021/04/10 03:03:20;;;;;;;1.02;0.40;;;6.30;75.40;;;;;;5094423;28;20123;-79
2021/04/10 03:05:46;;;;;;;0.85;0.32;;;6.30;75.50;;;;;;5093035;28;20067;-80
2021/04/10 03:08:22;;;;;;;0.35;0.30;;;6.30;75.50;;;;;;5059609;28;20036;-80
2021/04/10 03:10:49;;;;;;;0.45;0.30;;;6.20;75.60;;;;;;5093159;28;20044;-80
2021/04/10 03:13:17;;;;;;;1.05;0.38;;;6.40;75.70;;;;;;5094388;28;20064;-80
2021/04/10 03:15:44;;;;;;;0.95;0.40;;;6.20;75.70;;;;;;5094485;28;20122;-80
2021/04/10 03:18:11;;;;;;;0.65;0.35;;;6.20;75.80;;;;;;5094121;28;20463;-80
2021/04/10 03:20:37;;;;;;;1.88;0.50;;;6.20;75.80;;;;;;5059944;28;20070;-80
2021/04/10 03:23:03;;;;;;;0.52;0.40;;;6.20;75.90;;;;;;5094122;28;20044;-79
2021/04/10 03:25:29;;;;;;;0.70;0.50;;;6.20;75.90;;;;;;5094362;28;20036;-80
2021/04/10 03:27:55;;;;;;;2.03;0.52;;;6.10;75.90;;;;;;5094267;28;20126;-80
2021/04/10 03:30:22;;;;;;;0.95;0.57;;;6.10;75.90;;;;;;5094642;28;20070;-81
2021/04/10 03:32:49;;;;;;;1.08;0.60;;;6.10;75.90;;;;;;5077050;28;20101;-80
2021/04/10 03:35:15;;;;;;;0.80;0.50;;;6.10;75.90;;;;;;5093791;28;20032;-80
2021/04/10 03:37:41;;;;;;;1.00;0.30;;;6.10;76.00;;;;;;5075870;28;20044;-80
2021/04/10 03:40:08;;;;;;;0.82;0.55;;;6.10;76.00;;;;;;5093909;28;20493;-80
2021/04/10 03:42:43;;;;;;;0.88;0.40;;;6.10;76.10;;;;;;5076002;28;20494;-80
2021/04/10 03:45:15;;;;;;;0.40;0.40;;;6.10;76.10;;;;;;5074472;28;20131;-80
2021/04/10 03:47:41;;;;;;;0.68;0.60;;;6.10;76.10;;;;;;5094200;28;20067;-80
2021/04/10 03:50:09;;;;;;;0.47;0.35;;;6.00;76.10;;;;;;5075499;28;20468;-79
2021/04/10 03:52:34;;;;;;;0.60;0.50;;;6.10;76.20;;;;;;5093692;28;20090;-79
2021/04/10 03:55:01;;;;;;;0.95;0.50;;;6.00;76.20;;;;;;5093711;28;20035;-80
2021/04/10 03:57:27;;;;;;;2.65;0.73;;;6.00;76.80;;;;;;5058861;28;20040;-80
2021/04/10 03:59:53;;;;;;;0.85;0.50;;;6.10;76.20;;;;;;5094138;28;20048;-80
2021/04/10 04:02:19;;;;;;;0.50;0.50;;;6.10;76.30;;;;;;5075612;28;20565;-80
2021/04/10 04:04:45;;;;;;;0.80;0.40;;;6.10;76.30;;;;;;5075659;28;20127;-79
2021/04/10 04:07:10;;;;;;;1.02;0.50;;;6.00;76.30;;;;;;5093511;28;20083;-80
2021/04/10 04:09:37;;;;;;;1.42;0.60;;;6.10;76.40;;;;;;5075412;28;20028;-80
2021/04/10 04:12:04;;;;;;;0.50;0.40;;;6.00;76.30;;;;;;5075551;28;20033;-80
2021/04/10 04:14:30;;;;;;;1.13;0.65;;;6.10;76.40;;;;;;5093901;28;20040;-81
2021/04/10 04:16:56;;;;;;;1.00;0.65;;;6.10;76.40;;;;;;5093984;28;20498;-80
2021/04/10 04:19:21;;;;;;;1.00;0.60;;;6.10;76.40;;;;;;5094073;28;20055;-80
2021/04/10 04:21:47;;;;;;;2.25;0.80;;;6.10;76.40;;;;;;5093984;28;20093;-80
2021/04/10 04:24:13;;;;;;;0.73;0.43;;;6.00;76.40;;;;;;5075113;28;20512;-80
2021/04/10 04:26:39;;;;;;;2.30;0.55;;;6.00;76.40;;;;;;5094083;28;20124;-80
2021/04/10 04:29:04;;;;;;;0.90;0.57;;;6.00;76.40;;;;;;5093863;28;20040;-80
2021/04/10 04:31:30;;;;;;;0.77;0.43;;;6.00;76.50;;;;;;5075285;28;20048;-81
2021/04/10 04:33:56;;;;;;;1.00;0.50;;;6.10;76.50;;;;;;5093179;28;20040;-80
2021/04/10 04:36:21;;;;;;;1.02;0.60;;;6.00;76.50;;;;;;5093481;28;20085;-80
2021/04/10 04:38:47;;;;;;;2.03;0.63;;;6.10;76.50;;;;;;5075564;28;20048;-80
2021/04/10 04:41:13;;;;;;;1.77;0.55;;;6.10;76.50;;;;;;5058398;28;20055;-79
2021/04/10 04:43:39;;;;;;;1.45;0.70;;;6.20;76.60;;;;;;5093509;28;20482;-80
2021/04/10 04:46:04;;;;;;;1.15;0.60;;;6.00;76.50;;;;;;5093137;28;20044;-79
2021/04/10 04:48:30;;;;;;;1.25;0.70;;;6.00;76.50;;;;;;5092988;28;20130;-79
2021/04/10 04:50:56;;;;;;;0.82;0.60;;;6.00;76.60;;;;;;5092964;28;20039;-79
2021/04/10 04:53:22;;;;;;;2.10;0.40;;;6.00;76.60;;;;;;5092864;28;20506;-80
2021/04/10 04:55:48;;;;;;;0.90;0.60;;;6.00;76.60;;;;;;5074954;28;20119;-79
2021/04/10 04:58:14;;;;;;;1.17;0.65;;;6.00;76.60;;;;;;5092878;28;20044;-80
2021/04/10 05:00:40;;;;;;;1.35;0.60;;;6.20;76.70;;;;;;5075386;28;20039;-80
2021/04/10 05:03:06;;;;;;;2.10;0.80;;;6.00;76.60;;;;;;5092885;28;20066;-80
2021/04/10 05:05:31;;;;;;;1.40;0.60;;;6.10;76.70;;;;;;5092807;28;20032;-80
2021/04/10 05:07:57;;;;;;;0.93;0.60;;;6.00;76.60;;;;;;5093338;28;20043;-79
2021/04/10 05:10:23;;;;;;;0.50;0.47;;;6.00;76.60;;;;;;5075563;28;20127;-81
2021/04/10 05:12:49;;;;;;;0.90;0.60;;;6.10;76.70;;;;;;5074020;28;20044;-79
2021/04/10 05:15:14;;;;;;;0.77;0.50;;;6.10;76.70;;;;;;5074517;28;20044;-80
2021/04/10 05:17:40;;;;;;;0.60;0.40;;;6.10;76.60;;;;;;5093222;28;20414;-79
2021/04/10 05:20:08;;;;;;;1.70;0.60;;;6.10;76.60;;;;;;5092879;28;20036;-80
2021/04/10 05:22:34;;;;;;;1.30;0.70;;;6.10;77.20;;;;;;5074349;28;20048;-80
2021/04/10 05:25:00;;;;;;;1.20;0.63;;;6.10;76.60;;;;;;5092361;28;20047;-80
2021/04/10 05:27:26;;;;;;;1.65;0.70;;;6.20;76.70;;;;;;5074480;28;20044;-79
2021/04/10 05:29:51;;;;;;;0.98;0.60;;;6.10;76.60;;;;;;5074122;28;20036;-79
2021/04/10 05:32:17;;;;;;;1.58;0.75;;;6.10;76.60;;;;;;5075790;28;20040;-80
2021/04/10 05:34:43;;;;;;;1.10;0.70;;;6.10;76.60;;;;;;5074793;28;20032;-80
2021/04/10 05:37:08;;;;;;;2.30;0.80;;;6.10;76.60;;;;;;5092960;28;20470;-81
2021/04/10 05:39:34;;;;;;;0.55;0.45;;;6.10;76.60;;;;;;5092716;28;20375;-80
2021/04/10 05:42:00;;;;;;;1.17;0.60;;;6.10;76.60;;;;;;5074049;28;20040;-80
2021/04/10 05:44:26;;;;;;;1.75;0.63;;;6.10;76.60;;;;;;5074167;28;20055;-80
2021/04/10 05:46:51;;;;;;;1.00;0.60;;;6.20;76.60;;;;;;5092817;28;20044;-80
2021/04/10 05:49:17;;;;;;;2.13;0.63;;;6.20;76.50;;;;;;5074235;28;20040;-80
2021/04/10 05:51:43;;;;;;;1.50;0.70;;;6.20;76.50;;;;;;5092228;28;20032;-80
2021/04/10 05:54:08;;;;;;;1.40;0.65;;;6.30;76.50;;;;;;5074760;28;20040;-80
2021/04/10 05:56:36;;;;;;;0.85;0.60;;;6.30;76.40;;;;;;5073958;28;20044;-81
2021/04/10 05:59:02;;;;;;;1.00;0.50;;;6.30;76.30;;;;;;5090759;28;20496;-80
2021/04/10 06:01:28;;;;;;;0.35;0.30;;;6.40;76.30;;;;;;5092231;28;20033;-80
2021/04/10 06:03:56;;;;;;;1.50;0.70;;;6.40;76.20;;;;;;5073905;28;20085;-80
2021/04/10 06:06:22;;;;;;;0.85;0.50;;;6.40;76.20;;;;;;5093102;28;20070;-81
2021/04/10 06:08:48;;;;;;;1.13;0.60;;;6.40;76.10;;;;;;5093456;28;20032;-78
2021/04/10 06:11:17;;;;;;;1.38;0.47;;;6.50;76.10;;;;;;5073531;28;20040;-81
2021/04/10 06:13:51;;;;;;;1.27;0.60;;;6.50;76.00;;;;;;5073830;28;20044;-81
2021/04/10 06:16:20;;;;;;;0.88;0.50;;;6.50;75.90;;;;;;5073147;28;20052;-81
2021/04/10 06:18:48;;;;;;;1.40;0.60;;;6.60;75.90;;;;;;5073327;28;20100;-81
2021/04/10 06:21:14;;;;;;;1.08;0.68;;;6.60;75.80;;;;;;5091584;28;20042;-79
2021/04/10 06:23:41;;;;;;;1.90;0.50;;;6.70;75.80;;;;;;5056891;28;20119;-79
2021/04/10 06:26:06;;;;;;;1.70;0.60;;;6.70;75.70;;;;;;5094326;28;20517;-79
2021/04/10 06:28:32;;;;;;;2.05;0.40;;;6.70;75.60;;;;;;5077092;28;20032;-79
2021/04/10 06:30:58;;;;;;;0.77;0.55;;;6.70;75.50;;;;;;5095179;28;20351;-80
2021/04/10 06:33:24;;;;;;;0.40;0.40;;;6.70;75.50;;;;;;5060513;28;20127;-80
2021/04/10 06:35:50;;;;;;;0.88;0.50;;;6.80;75.50;;;;;;5095612;28;20043;-81
2021/04/10 06:38:16;;;;;;;1.05;0.47;;;6.80;75.50;;;;;;5095473;28;20040;-80
2021/04/10 06:40:44;;;;;;;0.98;0.60;;;6.80;75.40;;;;;;5077251;28;20379;-79
2021/04/10 06:43:11;;;;;;;3.15;0.80;;;6.90;75.30;;;;;;5077188;28;20036;-79
2021/04/10 06:45:37;;;;;;;1.85;0.50;;;6.90;75.20;;;;;;5095086;28;20032;-79
2021/04/10 06:48:03;;;;;;;1.38;0.45;;;7.00;75.10;;;;;;5095486;28;20429;-80
2021/04/10 06:50:30;;;;;;;0.88;0.30;;;7.00;75.10;;;;;;5095583;28;20055;-78
2021/04/10 06:52:57;;;;;;;0.88;0.50;;;7.00;75.00;;;;;;5059922;28;20051;-79
2021/04/10 06:55:24;;;;;;;1.25;0.32;;;7.10;75.10;;;;;;5059802;28;20089;-78
2021/04/10 06:58:05;;;;;;;0.75;0.57;;;7.10;75.10;;;;;;5060020;28;20043;-77
2021/04/10 07:00:32;;;;;;;0.38;0.38;;;7.00;75.00;;;;;;5074944;28;20050;-78
2021/04/10 07:03:12;;;;;;;0.55;0.40;;;7.10;75.00;;;;;;5076774;28;20378;-77
2021/04/10 07:05:38;;;;;;;0.75;0.40;;;7.10;75.00;;;;;;5076846;28;20628;-77
2021/04/10 07:08:06;;;;;;;0.30;0.30;;;7.10;74.90;;;;;;5095148;28;20051;-77
2021/04/10 07:10:31;;;;;;;1.42;0.40;;;7.20;74.90;;;;;;5094468;28;20036;-78
2021/04/10 07:12:57;;;;;;;0.73;0.40;;;7.20;74.80;;;;;;5077809;28;20047;-77
2021/04/10 07:15:23;;;;;;;0.60;0.40;;;7.20;74.80;;;;;;5095096;28;20371;-76
2021/04/10 07:17:51;;;;;;;1.65;0.55;;;7.40;74.90;;;;;;5095316;28;20127;-77
2021/04/10 07:20:33;;;;;;;1.48;0.40;;;7.40;74.80;;;;;;5076530;28;20044;-74
2021/04/10 07:23:14;;;;;;;0.70;0.47;;;7.30;74.70;;;;;;5094451;28;20383;-75
2021/04/10 07:25:42;;;;;;;1.15;0.60;;;7.30;74.70;;;;;;5078547;28;20063;-77
2021/04/10 07:28:26;;;;;;;0.75;0.43;;;7.30;74.70;;;;;;5094596;28;20043;-76
2021/04/10 07:30:58;;;;;;;1.58;0.50;;;7.30;74.80;;;;;;5059135;28;20043;-79
2021/04/10 07:33:25;;;;;;;0.63;0.52;;;7.30;74.70;;;;;;5076469;28;20040;-77
2021/04/10 07:35:50;;;;;;;0.40;0.40;;;7.30;74.70;;;;;;5075834;28;20584;-77
2021/04/10 07:38:28;;;;;;;1.30;0.60;;;7.40;74.90;;;;;;5076274;28;20111;-77
2021/04/10 07:40:54;;;;;;;0.60;0.50;;;7.50;74.80;;;;;;5093053;28;20032;-76
2021/04/10 07:43:40;;;;;;;1.25;0.60;;;7.50;74.70;;;;;;5094152;28;20044;-77
2021/04/10 07:46:23;;;;;;;0.65;0.50;;;7.60;74.70;;;;;;5059241;28;20040;-73
2021/04/10 07:49:02;;;;;;;1.70;0.70;;;7.60;74.60;;;;;;5093818;28;20043;-74
2021/04/10 07:51:29;;;;;;;0.38;0.30;;;7.70;74.40;;;;;;5075511;28;20501;-74
2021/04/10 07:53:57;;;;;;;1.30;0.50;;;7.80;74.30;;;;;;5093815;28;20039;-74
2021/04/10 07:56:23;;;;;;;1.63;0.50;;;7.90;74.20;;;;;;5075572;28;20052;-75
2021/04/10 07:58:49;;;;;;;0.95;0.60;;;7.90;74.00;;;;;;5094177;28;20043;-75
2021/04/10 08:01:15;;;;;;;0.45;0.43;;;7.90;73.80;;;;;;5093735;28;20040;-74
2021/04/10 08:03:45;;;;;;;1.70;0.60;;;8.00;73.90;;;;;;5058582;28;20440;-74
2021/04/10 08:06:13;;;;;;;1.02;0.52;;;8.00;73.90;;;;;;5093355;28;20131;-74
2021/04/10 08:08:53;;;;;;;1.75;0.55;;;8.00;73.80;;;;;;5093660;28;20040;-74
2021/04/10 08:11:50;;;;;;;0.60;0.47;;;8.10;73.80;;;;;;5093109;28;20054;-74
2021/04/10 08:14:16;;;;;;;1.65;0.85;;;8.10;73.70;;;;;;5092628;28;20040;-75
2021/04/10 08:16:45;;;;;;;2.25;0.70;;;8.10;73.70;;;;;;5075788;28;20218;-75
2021/04/10 08:19:13;;;;;;;1.65;0.68;;;8.20;73.70;;;;;;5075989;28;20063;-75
2021/04/10 08:21:43;;;;;;;0.75;0.50;;;8.20;73.70;;;;;;5093379;28;20048;-75
2021/04/10 08:24:23;;;;;;;1.25;0.60;;;8.20;73.60;;;;;;5091554;28;20144;-75
2021/04/10 08:26:52;;;;;;;0.98;0.30;;;8.30;73.70;;;;;;5093184;28;20051;-75
2021/04/10 08:29:19;;;;;;;0.70;0.57;;;8.40;73.60;;;;;;5093777;28;20040;-75
2021/04/10 08:31:45;;;;;;;1.42;0.40;;;8.40;73.50;;;;;;5074747;28;20047;-75
2021/04/10 08:34:12;;;;;;;1.33;0.68;;;8.40;73.40;;;;;;5074947;28;20490;-75
2021/04/10 08:36:40;;;;;;;0.95;0.50;;;8.40;73.30;;;;;;5058224;28;20050;-75
2021/04/10 08:39:20;;;;;;;0.65;0.45;;;8.50;73.40;;;;;;5093274;28;20055;-74
2021/04/10 08:41:48;;;;;;;1.83;0.55;;;8.50;73.40;;;;;;5060278;28;20123;-75
2021/04/10 08:44:16;;;;;;;1.90;0.60;;;8.40;73.30;;;;;;5075717;28;20050;-76
2021/04/10 08:46:44;;;;;;;1.25;0.47;;;8.50;73.40;;;;;;5092588;28;20044;-75
2021/04/10 08:49:14;;;;;;;0.60;0.40;;;8.50;73.50;;;;;;5072874;28;20554;-73
2021/04/10 08:51:41;;;;;;;0.50;0.45;;;8.50;73.40;;;;;;5092254;28;20032;-76
2021/04/10 08:54:11;;;;;;;0.40;0.40;;;8.50;73.20;;;;;;5094819;28;20035;-77
2021/04/10 08:56:37;;;;;;;1.10;0.50;;;8.60;73.20;;;;;;5075909;28;20044;-77
2021/04/10 08:59:12;;;;;;;1.70;0.50;;;8.70;73.10;;;;;;5058662;28;20498;-78
2021/04/10 09:01:41;;;;;;;2.13;0.60;;;8.70;73.00;;;;;;5093687;28;20039;-75
2021/04/10 09:04:07;;;;;;;0.38;0.35;;;8.80;72.90;;;;;;5075921;28;20105;-76
2021/04/10 09:06:49;;;;;;;0.52;0.50;;;8.90;72.70;;;;;;5058717;28;20062;-76
2021/04/10 09:09:31;;;;;;;0.60;0.50;;;9.00;72.70;;;;;;5095644;28;20398;-76
2021/04/10 09:12:15;;;;;;;1.08;0.40;;;9.10;72.40;;;;;;5094250;28;20040;-77
2021/04/10 09:14:42;;;;;;;1.63;0.57;;;9.20;72.20;;;;;;5094039;28;20040;-76
2021/04/10 09:17:08;;;;;;;0.85;0.47;;;9.20;72.20;;;;;;5093045;28;20040;-76
2021/04/10 09:19:36;;;;;;;1.05;0.60;;;9.20;72.10;;;;;;5074729;28;20131;-77
2021/04/10 09:22:03;;;;;;;0.65;0.40;;;9.20;72.10;;;;;;5074608;28;20040;-76
2021/04/10 09:24:40;;;;;;;0.73;0.50;;;9.20;72.10;;;;;;5092686;28;20047;-75
2021/04/10 09:27:09;;;;;;;1.25;0.57;;;9.30;72.20;;;;;;5092143;28;20040;-75
2021/04/10 09:29:50;;;;;;;1.27;0.55;;;9.30;72.30;;;;;;5092542;28;20036;-76
2021/04/10 09:32:28;;;;;;;0.47;0.30;;;9.20;72.40;;;;;;5092540;28;20040;-75
2021/04/10 09:35:00;;;;;;;1.38;0.40;;;9.10;72.50;;;;;;5074573;28;20790;-74
2021/04/10 09:37:47;;;;;;;0.63;0.30;;;9.10;72.60;;;;;;5092865;28;20036;-75
2021/04/10 09:40:17;;;;;;;0.77;0.35;;;9.10;73.30;;;;;;5078386;28;20071;-76
2021/04/10 09:42:45;;;;;;;1.38;0.40;;;9.10;72.70;;;;;;5076228;28;20142;-75
2021/04/10 09:45:18;;;;;;;0.57;0.43;;;9.10;72.70;;;;;;5092891;28;20044;-75
2021/04/10 09:48:14;;;;;;;0.65;0.38;;;9.20;72.80;;;;;;5074240;28;20117;-75
2021/04/10 09:50:43;;;;;;;0.68;0.50;;;9.20;72.70;;;;;;5092280;28;20076;-76
2021/04/10 09:53:15;;;;;;;1.20;0.30;;;9.20;73.30;;;;;;5077638;28;20040;-75
2021/04/10 09:55:43;;;;;;;0.65;0.43;;;9.30;73.30;;;;;;5093941;28;20105;-75
2021/04/10 09:58:12;;;;;;;1.20;0.65;;;9.30;72.40;;;;;;5092883;28;20514;-75
2021/04/10 10:00:42;;;;;;;1.13;0.45;;;9.30;72.40;;;;;;5098202;28;20043;-75
2021/04/10 10:03:10;;;;;;;1.67;0.63;;;9.40;72.40;;;;;;5095992;28;20040;-75
2021/04/10 10:05:40;;;;;;;1.85;0.50;;;9.20;72.50;;;;;;5096200;28;20505;-74
2021/04/10 10:08:09;;;;;;;1.67;0.60;;;9.20;72.60;;;;;;5078878;28;20040;-74
2021/04/10 10:10:37;;;;;;;0.52;0.43;;;9.20;72.80;;;;;;5097216;28;20121;-74
2021/04/10 10:13:05;;;;;;;0.57;0.40;;;9.20;72.80;;;;;;5096292;28;20055;-75
2021/04/10 10:15:31;;;;;;;1.17;0.50;;;9.20;72.70;;;;;;5066172;28;20128;-75
2021/04/10 10:17:58;;;;;;;0.70;0.30;;;9.30;72.70;;;;;;5103771;28;20059;-75
2021/04/10 10:20:25;;;;;;;0.70;0.40;;;9.30;72.50;;;;;;5100773;28;20048;-75
2021/04/10 10:22:51;;;;;;;0.63;0.50;;;9.50;72.40;;;;;;5098955;28;20054;-76
2021/04/10 10:25:17;;;;;;;1.58;0.40;;;9.60;72.20;;;;;;5098830;28;20126;-76
2021/04/10 10:27:46;;;;;;;1.10;0.60;;;9.70;72.20;;;;;;5097925;28;20055;-75
2021/04/10 10:30:18;;;;;;;1.15;0.60;;;9.70;72.00;;;;;;5096435;28;20039;-76
2021/04/10 10:32:47;;;;;;;0.95;0.60;;;9.70;72.00;;;;;;5078023;28;20040;-76
2021/04/10 10:35:15;;;;;;;1.50;0.70;;;9.70;71.90;;;;;;5077824;28;20055;-76
2021/04/10 10:37:46;;;;;;;2.15;0.77;;;9.60;72.00;;;;;;5077480;28;20487;-76
2021/04/10 10:40:22;;;;;;;0.55;0.55;;;9.60;72.20;;;;;;5095631;28;20437;-76
2021/04/10 10:43:10;;;;;;;1.42;0.63;;;9.50;72.40;;;;;;5095735;28;20123;-76
2021/04/10 10:45:46;;;;;;;0.70;0.40;;;9.40;72.50;;;;;;5093855;28;20123;-76
2021/04/10 10:48:18;;;;;;;0.55;0.50;;;9.30;72.60;;;;;;5094450;28;20051;-76
2021/04/10 10:50:44;;;;;;;2.58;0.60;;;9.40;72.90;;;;;;5095367;28;20043;-75
2021/04/10 10:53:31;;;;;;;1.75;0.80;;;9.30;73.50;;;;;;5095103;28;20040;-75
2021/04/10 10:56:04;;;;;;;1.00;0.60;;;9.40;73.10;;;;;;5093824;28;20035;-76
2021/04/10 10:58:45;;;;;;;2.30;0.68;;;9.40;73.10;;;;;;5095024;28;20465;-75
2021/04/10 11:01:41;;;;;;;1.92;0.80;;;9.30;73.10;;;;;;5094799;28;20124;-75
2021/04/10 11:04:10;;;;;;;0.77;0.50;;;9.40;73.30;;;;;;5092788;28;20051;-75
2021/04/10 11:06:45;;;;;;;1.23;0.70;;;9.20;73.40;;;;;;5094806;28;20051;-75
2021/04/10 11:09:15;;;;;;;0.98;0.60;;;9.20;73.50;;;;;;5077697;28;20111;-76
2021/04/10 11:11:42;;;;;;;0.65;0.50;;;9.30;73.70;;;;;;5094506;28;20040;-76
2021/04/10 11:14:09;;;;;;;1.23;0.63;;;9.10;73.70;;;;;;5095862;28;20522;-76
2021/04/10 11:16:51;;;;;;;1.67;0.77;;;9.10;74.40;;;;;;5077064;28;20097;-76
2021/04/10 11:19:35;;;;;;;0.85;0.68;;;9.10;74.00;;;;;;5077634;28;20044;-76
2021/04/10 11:22:03;;;;;;;1.90;0.80;;;9.10;73.90;;;;;;5078216;28;20470;-77
2021/04/10 11:24:39;;;;;;;1.95;0.88;;;9.30;73.90;;;;;;5095330;28;20044;-76
2021/04/10 11:27:22;;;;;;;1.42;1.00;;;9.20;73.90;;;;;;5096315;28;20087;-76
2021/04/10 11:29:51;;;;;;;1.15;0.80;;;9.20;73.80;;;;;;5095314;28;20032;-77
2021/04/10 11:32:23;;;;;;;1.27;0.88;;;9.10;73.90;;;;;;5098783;28;20040;-76
2021/04/10 11:34:53;;;;;;;1.38;0.90;;;9.10;74.00;;;;;;5096364;28;20047;-77
2021/04/10 11:37:35;;;;;;;1.70;0.80;;;9.10;74.10;;;;;;5078554;28;20047;-76
2021/04/10 11:40:06;;;;;;;1.60;0.80;;;9.10;74.00;;;;;;5080799;28;20036;-78
2021/04/10 11:42:38;;;;;;;2.43;1.03;;;9.20;74.00;;;;;;5068901;28;20036;-78
2021/04/10 11:45:22;;;;;;;1.20;0.80;;;9.20;74.00;;;;;;5105850;28;20281;-78
2021/04/10 11:47:48;;;;;;;2.60;1.08;;;9.10;74.10;;;;;;5102800;28;20048;-78
2021/04/10 11:50:17;;;;;;;3.25;1.08;;;9.10;74.10;;;;;;5086297;28;20086;-77
2021/04/10 11:52:45;;;;;;;1.80;1.20;;;9.00;74.30;;;;;;5086024;28;20036;-77
2021/04/10 11:55:17;;;;;;;2.05;1.25;;;9.10;74.60;;;;;;5101250;28;20036;-78
2021/04/10 11:57:44;;;;;;;1.70;1.17;;;8.90;74.60;;;;;;5101265;28;20043;-77
2021/04/10 12:00:17;;;;;;;1.67;1.30;;;8.90;74.80;;;;;;5100888;28;20044;-77
2021/04/10 12:02:46;;;;;;;2.42;1.50;;;8.80;74.90;;;;;;5083589;28;20493;-78
2021/04/10 12:05:36;;;;;;;1.95;1.30;;;8.70;75.10;;;;;;5094744;28;20035;-79
2021/04/10 12:08:07;;;;;;;2.20;1.50;;;8.70;75.30;;;;;;5078369;28;20425;-77
2021/04/10 12:10:34;;;;;;;4.10;1.75;;;8.70;75.30;;;;;;5092916;28;20040;-78
2021/04/10 12:13:00;;;;;;;2.72;1.50;;;8.70;75.30;;;;;;5098855;28;20071;-78
2021/04/10 12:15:29;;;;;;;3.45;2.00;;;8.70;75.30;;;;;;5079091;28;20482;-77
2021/04/10 12:17:56;;;;;;;3.17;1.85;;;8.70;75.40;;;;;;5097384;28;20090;-78
2021/04/10 12:20:22;;;;;;;4.45;1.65;;;8.60;75.50;;;;;;5096651;28;20505;-77
2021/04/10 12:22:49;;;;;;;2.70;1.48;;;8.60;75.60;;;;;;5097945;28;20481;-79
2021/04/10 12:25:15;;;;;;;3.28;1.60;;;8.60;75.70;;;;;;5095451;28;20036;-78
2021/04/10 12:27:40;;;;;;;3.83;1.80;;;8.60;75.70;;;;;;5100561;28;20044;-78
2021/04/10 12:30:07;;;;;;;2.28;1.63;;;8.60;75.70;;;;;;5101352;28;20036;-78
2021/04/10 12:32:34;;;;;;;3.15;1.80;;;8.50;75.80;;;;;;5099991;28;20055;-78
2021/04/10 12:35:00;;;;;;;3.58;1.80;;;8.40;75.90;;;;;;5096314;28;20044;-81
2021/04/10 12:37:26;;;;;;;3.50;1.98;;;8.30;76.10;;;;;;5017009;28;20033;-78
2021/04/10 12:39:52;;;;;;;3.47;1.58;;;8.20;76.30;;;;;;5031746;28;20049;-77
2021/04/10 12:47:46;;;;;;;2.53;1.50;;;8.10;76.90;;;;;;5362462;22;20551;-73
2021/04/10 12:50:16;;;;;;;2.95;1.40;;;8.00;76.90;;;;;;5013268;28;20080;-72
2021/04/10 12:52:42;;;;;;;3.88;1.50;;;8.00;77.00;;;;;;4995756;28;20088;-72
2021/04/10 12:55:10;;;;;;;3.97;1.75;;;8.00;77.00;;;;;;4995522;28;20517;-73
2021/04/10 13:00:46;;;;;;;2.47;1.33;;;8.00;77.20;;;;;;4996424;28;20053;-78
2021/04/10 13:03:13;;;;;;;2.50;1.17;;;7.90;77.10;;;;;;5014599;28;20034;-77
2021/04/10 13:05:39;;;;;;;1.92;1.10;;;7.90;77.20;;;;;;5003649;28;20034;-77
2021/04/10 13:08:06;;;;;;;1.75;1.00;;;7.90;77.30;;;;;;5002761;28;20057;-78
2021/04/10 13:10:32;;;;;;;2.55;1.23;;;7.90;77.30;;;;;;4978764;28;20497;-75
2021/04/10 13:12:59;;;;;;;1.77;1.23;;;7.90;77.40;;;;;;4998470;28;20034;-76
2021/04/10 13:15:25;;;;;;;2.40;1.40;;;7.90;77.40;;;;;;5018260;28;20119;-76
2021/04/10 13:17:55;;;;;;;3.10;1.50;;;7.90;77.40;;;;;;4995746;28;20050;-77